createdAt,value
2018-10-15T00:02:17.608Z,6.47
2018-10-15T00:04:46.591Z,5.50
2018-10-15T00:07:21.281Z,5.67
2018-10-15T00:09:50.417Z,5.83
2018-10-15T00:12:19.591Z,5.25
2018-10-15T00:14:48.539Z,5.95
2018-10-15T00:17:17.484Z,5.25
2018-10-15T00:19:46.401Z,5.87
2018-10-15T00:22:15.745Z,6.28
2018-10-15T00:24:44.717Z,6.03
2018-10-15T00:27:13.615Z,5.70
2018-10-15T00:29:43.078Z,5.30
2018-10-15T00:32:12.035Z,6.55
2018-10-15T00:34:40.914Z,6.12
2018-10-15T00:37:09.815Z,5.47
2018-10-15T00:39:38.900Z,6.45
2018-10-15T00:42:07.848Z,7.53
2018-10-15T00:44:36.811Z,6.28
2018-10-15T00:47:06.436Z,6.17
2018-10-15T00:49:35.303Z,5.58
2018-10-15T00:52:04.245Z,6.65
2018-10-15T00:54:33.434Z,5.50
2018-10-15T00:57:02.336Z,5.60
2018-10-15T00:59:31.248Z,5.85
2018-10-15T01:02:00.192Z,6.55
2018-10-15T01:04:29.077Z,5.95
2018-10-15T01:06:57.980Z,5.90
2018-10-15T01:09:27.108Z,5.55
2018-10-15T01:11:55.989Z,6.50
2018-10-15T01:14:25.187Z,5.85
2018-10-15T01:16:54.129Z,7.80
2018-10-15T01:19:23.084Z,6.33
2018-10-15T01:21:52.059Z,6.20
2018-10-15T01:24:21.058Z,5.92
2018-10-15T01:26:50.905Z,6.83
2018-10-15T01:29:20.427Z,5.85
2018-10-15T01:31:49.324Z,7.62
2018-10-15T01:34:18.770Z,5.85
2018-10-15T01:36:47.701Z,6.95
2018-10-15T01:39:16.940Z,5.60
2018-10-15T01:41:46.226Z,6.22
2018-10-15T01:44:15.211Z,7.58
2018-10-15T01:46:44.190Z,7.20
2018-10-15T01:49:13.070Z,6.62
2018-10-15T01:51:42.263Z,7.20
2018-10-15T01:54:11.629Z,6.50
2018-10-15T01:56:40.494Z,7.42
2018-10-15T01:59:09.451Z,7.20
2018-10-15T02:01:38.795Z,5.83
2018-10-15T02:04:07.746Z,6.55
2018-10-15T02:06:36.759Z,7.50
2018-10-15T02:09:08.183Z,7.40
2018-10-15T02:11:37.698Z,6.85
2018-10-15T02:14:07.583Z,7.72
2018-10-15T02:16:36.479Z,6.95
2018-10-15T02:19:05.664Z,7.20
2018-10-15T02:21:34.617Z,7.65
2018-10-15T02:24:03.549Z,7.03
2018-10-15T02:26:32.491Z,6.87
2018-10-15T02:29:01.413Z,6.83
2018-10-15T02:31:30.886Z,7.15
2018-10-15T02:33:59.863Z,8.68
2018-10-15T02:36:28.755Z,7.00
2018-10-15T02:38:57.683Z,6.97
2018-10-15T02:41:26.795Z,6.62
2018-10-15T02:43:55.666Z,8.13
2018-10-15T02:46:24.575Z,6.40
2018-10-15T02:48:53.517Z,7.50
2018-10-15T02:51:22.426Z,6.10
2018-10-15T02:53:51.487Z,6.97
2018-10-15T02:56:20.485Z,6.97
2018-10-15T02:58:50.284Z,7.87
2018-10-15T03:01:19.240Z,6.45
2018-10-15T03:03:48.651Z,7.58
2018-10-15T03:06:17.558Z,7.08
2018-10-15T03:08:46.470Z,7.40
2018-10-15T03:11:15.438Z,8.38
2018-10-15T03:13:44.587Z,8.15
2018-10-15T03:16:13.531Z,7.97
2018-10-15T03:18:42.463Z,6.72
2018-10-15T03:21:11.827Z,8.30
2018-10-15T03:23:41.862Z,7.95
2018-10-15T03:26:10.892Z,7.20
2018-10-15T03:28:39.804Z,6.83
2018-10-15T03:31:09.289Z,7.62
2018-10-15T03:33:38.589Z,6.40
2018-10-15T03:36:07.504Z,8.35
2018-10-15T03:38:36.500Z,7.37
2018-10-15T03:41:06.067Z,7.25
2018-10-15T03:43:34.966Z,6.60
2018-10-15T03:46:03.882Z,8.00
2018-10-15T03:48:32.819Z,8.23
2018-10-15T03:51:01.713Z,7.35
2018-10-15T03:53:30.613Z,6.72
2018-10-15T03:56:00.035Z,6.65
2018-10-15T03:58:29.763Z,9.18
2018-10-15T04:00:58.692Z,7.90
2018-10-15T04:03:27.747Z,7.90
2018-10-15T04:05:56.643Z,7.60
2018-10-15T04:08:25.556Z,8.55
2018-10-15T04:10:54.522Z,7.87
2018-10-15T04:13:23.408Z,8.13
2018-10-15T04:15:52.305Z,7.40
2018-10-15T04:18:21.215Z,7.95
2018-10-15T04:20:50.154Z,7.42
2018-10-15T04:23:19.693Z,7.33
2018-10-15T04:25:49.571Z,7.65
2018-10-15T04:28:18.463Z,7.90
2018-10-15T04:30:47.314Z,7.30
2018-10-15T04:33:16.790Z,7.70
2018-10-15T04:35:45.682Z,7.22
2018-10-15T04:38:15.014Z,8.90
2018-10-15T04:40:43.931Z,8.25
2018-10-15T04:43:12.857Z,7.90
2018-10-15T04:45:41.724Z,7.90
2018-10-15T04:48:10.648Z,7.47
2018-10-15T04:50:39.541Z,8.45
2018-10-15T04:53:08.443Z,8.43
2018-10-15T04:55:37.390Z,7.62
2018-10-15T04:58:06.334Z,7.33
2018-10-15T05:00:35.517Z,7.22
2018-10-15T05:03:04.537Z,8.15
2018-10-15T05:05:33.494Z,8.58
2018-10-15T05:08:02.836Z,9.90
2018-10-15T05:10:31.778Z,7.25
2018-10-15T05:13:01.052Z,7.92
2018-10-15T05:15:30.556Z,8.93
2018-10-15T05:17:59.532Z,8.15
2018-10-15T05:20:28.571Z,7.83
2018-10-15T05:22:57.524Z,8.93
2018-10-15T05:25:26.554Z,9.28
2018-10-15T05:27:55.464Z,8.50
2018-10-15T05:30:24.436Z,8.73
2018-10-15T05:32:53.356Z,8.95
2018-10-15T05:35:22.331Z,9.30
2018-10-15T05:37:51.212Z,8.23
2018-10-15T05:40:20.137Z,8.18
2018-10-15T05:42:49.276Z,8.03
2018-10-15T05:45:18.148Z,9.00
2018-10-15T05:47:47.642Z,7.55
2018-10-15T05:50:16.592Z,9.18
2018-10-15T05:52:45.463Z,7.42
2018-10-15T05:55:14.417Z,8.88
2018-10-15T05:57:43.404Z,8.95
2018-10-15T06:00:15.143Z,8.25
2018-10-15T06:02:44.479Z,8.88
2018-10-15T06:05:13.494Z,7.70
2018-10-15T06:07:42.539Z,8.60
2018-10-15T06:10:14.587Z,8.98
2018-10-15T06:12:44.783Z,9.20
2018-10-15T06:15:13.600Z,8.48
2018-10-15T06:17:42.750Z,8.73
2018-10-15T06:20:12.969Z,7.80
2018-10-15T06:22:42.117Z,9.05
2018-10-15T06:25:12.484Z,9.08
2018-10-15T06:27:41.851Z,9.13
2018-10-15T06:30:12.962Z,8.43
2018-10-15T06:32:41.915Z,9.08
2018-10-15T06:35:11.143Z,9.00
2018-10-15T06:37:40.245Z,8.60
2018-10-15T06:40:09.721Z,9.98
2018-10-15T06:42:39.859Z,8.95
2018-10-15T06:45:11.192Z,9.55
2018-10-15T06:47:40.452Z,8.63
2018-10-15T06:50:10.848Z,9.10
2018-10-15T06:52:39.796Z,9.30
2018-10-15T06:55:08.906Z,8.85
2018-10-15T06:57:39.287Z,8.98
2018-10-15T07:00:09.704Z,9.60
2018-10-15T07:02:39.068Z,9.00
2018-10-15T07:05:09.003Z,8.43
2018-10-15T07:07:38.087Z,9.28
2018-10-15T07:10:07.755Z,8.35
2018-10-15T07:12:36.699Z,8.93
2018-10-15T07:15:05.931Z,8.53
2018-10-15T07:17:34.844Z,9.25
2018-10-15T07:20:03.949Z,7.90
2018-10-15T07:22:32.935Z,7.47
2018-10-15T07:25:12.932Z,9.45
2018-10-15T07:27:41.861Z,7.75
2018-10-15T07:30:11.901Z,8.95
2018-10-15T07:32:41.121Z,9.30
2018-10-15T07:35:10.272Z,10.35
2018-10-15T07:37:39.462Z,7.83
2018-10-15T07:40:08.562Z,8.55
2018-10-15T07:42:37.475Z,8.70
2018-10-15T07:45:08.523Z,8.20
2018-10-15T07:47:37.458Z,8.18
2018-10-15T07:50:07.618Z,8.28
2018-10-15T07:52:36.683Z,8.53
2018-10-15T07:55:08.169Z,7.97
2018-10-15T07:57:37.949Z,8.68
2018-10-15T08:00:09.774Z,8.43
2018-10-15T08:02:39.715Z,7.22
2018-10-15T08:05:09.731Z,8.35
2018-10-15T08:07:39.938Z,7.40
2018-10-15T08:10:10.024Z,7.42
2018-10-15T08:12:39.167Z,7.00
2018-10-15T08:15:09.340Z,7.45
2018-10-15T08:17:38.380Z,6.70
2018-10-15T08:20:09.418Z,8.08
2018-10-15T08:22:38.767Z,6.72
2018-10-15T08:25:07.805Z,6.60
2018-10-15T08:27:37.723Z,7.85
2018-10-15T08:30:11.472Z,7.30
2018-10-15T08:32:40.639Z,6.53
2018-10-15T08:35:09.563Z,6.87
2018-10-15T08:37:38.549Z,6.70
2018-10-15T08:40:10.735Z,7.92
2018-10-15T08:42:39.792Z,5.78
2018-10-15T08:45:09.958Z,5.35
2018-10-15T08:47:38.913Z,5.70
2018-10-15T08:50:09.503Z,6.00
2018-10-15T08:52:38.620Z,6.20
2018-10-15T08:55:07.729Z,4.72
2018-10-15T08:57:37.854Z,5.30
2018-10-15T09:00:19.676Z,5.65
2018-10-15T09:02:49.091Z,6.45
2018-10-15T09:05:18.302Z,5.22
2018-10-15T09:07:47.736Z,6.20
2018-10-15T09:10:17.841Z,5.28
2018-10-15T09:12:46.813Z,5.08
2018-10-15T09:15:19.082Z,4.17
2018-10-15T09:17:48.094Z,6.00
2018-10-15T09:20:17.071Z,4.90
2018-10-15T09:22:46.424Z,4.47
2018-10-15T09:25:16.740Z,3.87
2018-10-15T09:27:46.176Z,4.60
2018-10-15T09:30:18.463Z,4.62
2018-10-15T09:32:47.421Z,5.05
2018-10-15T09:35:17.293Z,5.05
2018-10-15T09:37:46.195Z,3.70
2018-10-15T09:40:17.467Z,5.05
2018-10-15T09:42:46.922Z,4.78
2018-10-15T09:45:17.228Z,4.65
2018-10-15T09:47:47.643Z,4.45
2018-10-15T09:50:16.635Z,4.10
2018-10-15T09:52:45.581Z,4.03
2018-10-15T09:55:15.571Z,4.58
2018-10-15T09:57:44.705Z,4.90
2018-10-15T10:00:20.212Z,3.83
2018-10-15T10:02:50.699Z,4.58
2018-10-15T10:05:19.716Z,3.77
2018-10-15T10:07:48.783Z,4.65
2018-10-15T10:10:17.702Z,4.42
2018-10-15T10:12:46.663Z,4.30
2018-10-15T10:15:16.107Z,3.52
2018-10-15T10:17:46.107Z,4.78
2018-10-15T10:20:15.703Z,4.37
2018-10-15T10:22:44.676Z,5.25
2018-10-15T10:25:14.775Z,4.45
2018-10-15T10:27:43.842Z,5.25
2018-10-15T10:30:14.031Z,4.28
2018-10-15T10:32:43.421Z,3.98
2018-10-15T10:35:28.858Z,4.53
2018-10-15T10:37:57.754Z,3.72
2018-10-15T10:40:26.685Z,4.28
2018-10-15T10:42:55.563Z,3.67
2018-10-15T10:45:24.626Z,3.75
2018-10-15T10:47:53.572Z,4.28
2018-10-15T10:50:22.604Z,4.28
2018-10-15T10:52:51.575Z,4.00
2018-10-15T10:55:20.533Z,3.00
2018-10-15T10:57:49.435Z,3.70
2018-10-15T11:00:18.649Z,3.90
2018-10-15T11:02:47.652Z,4.12
2018-10-15T11:05:16.615Z,3.00
2018-10-15T11:07:45.570Z,3.52
2018-10-15T11:10:14.465Z,3.27
2018-10-15T11:12:44.289Z,4.90
2018-10-15T11:15:13.268Z,3.67
2018-10-15T11:17:42.148Z,3.87
2018-10-15T11:20:11.069Z,3.50
2018-10-15T11:22:40.019Z,3.98
2018-10-15T11:25:09.002Z,3.70
2018-10-15T11:27:38.093Z,3.50
2018-10-15T11:30:08.487Z,4.28
2018-10-15T11:32:37.418Z,3.77
2018-10-15T11:35:07.014Z,3.55
2018-10-15T11:37:36.321Z,3.58
2018-10-15T11:40:05.271Z,2.85
2018-10-15T11:42:34.233Z,4.42
2018-10-15T11:45:03.235Z,3.75
2018-10-15T11:47:32.167Z,3.37
2018-10-15T11:50:01.168Z,4.03
2018-10-15T11:52:30.067Z,3.65
2018-10-15T11:54:58.981Z,4.47
2018-10-15T11:57:27.930Z,3.70
2018-10-15T11:59:56.853Z,3.90
2018-10-15T12:02:25.763Z,3.62
2018-10-15T12:04:54.730Z,3.62
2018-10-15T12:07:23.708Z,3.72
2018-10-15T12:09:52.770Z,5.33
2018-10-15T12:12:21.683Z,4.20
2018-10-15T12:14:50.611Z,4.00
2018-10-15T12:17:19.487Z,3.47
2018-10-15T12:19:48.399Z,4.60
2018-10-15T12:22:17.315Z,4.22
2018-10-15T12:24:46.187Z,3.67
2018-10-15T12:27:15.119Z,4.60
2018-10-15T12:29:44.098Z,4.58
2018-10-15T12:32:13.944Z,4.05
2018-10-15T12:34:42.894Z,4.62
2018-10-15T12:37:11.872Z,4.22
2018-10-15T12:39:40.751Z,4.45
2018-10-15T12:42:09.671Z,4.20
2018-10-15T12:44:38.609Z,4.60
2018-10-15T12:47:07.796Z,4.28
2018-10-15T12:49:36.653Z,4.20
2018-10-15T12:52:05.751Z,3.98
2018-10-15T12:54:34.661Z,4.08
2018-10-15T12:57:03.653Z,4.28
2018-10-15T12:59:32.531Z,4.70
2018-10-15T13:02:01.457Z,4.15
2018-10-15T13:04:30.351Z,4.30
2018-10-15T13:06:59.327Z,4.85
2018-10-15T13:09:28.226Z,4.40
2018-10-15T13:11:57.193Z,5.22
2018-10-15T13:14:26.313Z,4.60
2018-10-15T13:16:55.208Z,5.08
2018-10-15T13:19:24.180Z,5.55
2018-10-15T13:21:53.135Z,4.00
2018-10-15T13:24:22.003Z,4.75
2018-10-15T13:26:50.877Z,4.72
2018-10-15T13:29:19.810Z,5.15
2018-10-15T13:31:48.747Z,3.50
2018-10-15T13:34:17.740Z,4.97
2018-10-15T13:36:46.744Z,4.47
2018-10-15T13:39:15.696Z,4.30
2018-10-15T13:41:44.714Z,4.35
2018-10-15T13:44:13.679Z,4.67
2018-10-15T13:46:42.579Z,4.28
2018-10-15T13:49:11.589Z,4.87
2018-10-15T13:51:40.566Z,4.22
2018-10-15T13:54:09.549Z,4.60
2018-10-15T13:56:38.442Z,5.15
2018-10-15T13:59:07.409Z,3.90
2018-10-15T14:01:36.267Z,5.30
2018-10-15T14:04:06.317Z,3.85
2018-10-15T14:06:35.277Z,4.40
2018-10-15T14:09:05.902Z,4.90
2018-10-15T14:11:34.864Z,4.80
2018-10-15T14:14:03.929Z,4.75
2018-10-15T14:16:32.819Z,4.03
2018-10-15T14:19:01.777Z,4.90
2018-10-15T14:21:30.740Z,5.22
2018-10-15T14:23:59.618Z,3.87
2018-10-15T14:26:28.579Z,4.28
2018-10-15T14:28:57.554Z,5.67
2018-10-15T14:31:26.491Z,4.55
2018-10-15T14:33:55.364Z,4.25
2018-10-15T14:36:24.377Z,3.67
2018-10-15T14:38:53.298Z,4.85
2018-10-15T14:41:22.232Z,5.10
2018-10-15T14:43:51.312Z,5.35
2018-10-15T14:46:20.336Z,4.25
2018-10-15T14:48:49.259Z,4.60
2018-10-15T14:51:18.290Z,4.00
2018-10-15T14:53:47.203Z,5.05
2018-10-15T14:56:16.134Z,4.53
2018-10-15T14:58:45.511Z,4.03
2018-10-15T15:01:14.444Z,4.60
2018-10-15T15:03:43.359Z,3.83
2018-10-15T15:06:12.331Z,4.62
2018-10-15T15:08:41.218Z,3.87
2018-10-15T15:11:21.319Z,3.98
2018-10-15T15:14:02.661Z,4.28
2018-10-15T15:16:31.630Z,5.78
2018-10-15T15:19:00.535Z,5.30
2018-10-15T15:21:29.481Z,4.20
2018-10-15T15:23:58.412Z,4.65
2018-10-15T15:26:27.439Z,4.30
2018-10-15T15:28:59.315Z,5.80
2018-10-15T15:31:28.426Z,5.53
2018-10-15T15:33:57.351Z,4.75
2018-10-15T15:36:27.020Z,5.50
2018-10-15T15:38:55.964Z,5.12
2018-10-15T15:41:24.859Z,5.12
2018-10-15T15:43:54.627Z,4.62
2018-10-15T15:46:24.176Z,4.80
2018-10-15T15:48:53.388Z,5.20
2018-10-15T15:51:22.471Z,4.90
2018-10-15T15:53:51.478Z,5.40
2018-10-15T15:56:20.504Z,5.55
2018-10-15T15:58:49.541Z,5.78
2018-10-15T16:01:18.688Z,5.47
2018-10-15T16:03:47.662Z,6.05
2018-10-15T16:06:27.740Z,5.58
2018-10-15T16:08:56.828Z,5.85
2018-10-15T16:11:26.264Z,6.30
2018-10-15T16:13:55.512Z,5.37
2018-10-15T16:16:24.634Z,6.72
2018-10-15T16:18:54.483Z,6.45
2018-10-15T16:21:25.168Z,5.30
2018-10-15T16:23:54.435Z,6.87
2018-10-15T16:26:23.461Z,5.75
2018-10-15T16:28:52.444Z,5.80
2018-10-15T16:31:21.603Z,7.75
2018-10-15T16:33:50.792Z,7.00
2018-10-15T16:36:19.892Z,5.53
2018-10-15T16:38:49.043Z,5.70
2018-10-15T16:41:17.990Z,7.15
2018-10-15T16:43:46.967Z,6.80
2018-10-15T16:46:15.943Z,7.42
2018-10-15T16:48:44.925Z,6.97
2018-10-15T16:51:13.937Z,6.85
2018-10-15T16:53:43.320Z,6.25
2018-10-15T16:56:12.386Z,6.97
2018-10-15T16:58:41.463Z,7.30
2018-10-15T17:01:11.570Z,6.83
2018-10-15T17:03:40.522Z,7.80
2018-10-15T17:06:09.723Z,7.85
2018-10-15T17:08:38.711Z,9.40
2018-10-15T17:11:07.779Z,6.92
2018-10-15T17:13:36.970Z,7.42
2018-10-15T17:16:07.134Z,7.25
2018-10-15T17:18:36.306Z,8.60
2018-10-15T17:21:06.080Z,8.03
2018-10-15T17:23:35.410Z,8.10
2018-10-15T17:26:04.695Z,8.35
2018-10-15T17:28:35.649Z,7.10
2018-10-15T17:31:04.711Z,8.38
2018-10-15T17:33:33.667Z,8.78
2018-10-15T17:36:02.741Z,8.75
2018-10-15T17:38:31.760Z,8.30
2018-10-15T17:41:00.683Z,9.68
2018-10-15T17:43:29.757Z,9.18
2018-10-15T17:45:58.628Z,8.10
2018-10-15T17:48:27.566Z,8.25
2018-10-15T17:50:56.508Z,9.53
2018-10-15T17:53:25.406Z,8.98
2018-10-15T17:55:54.418Z,7.80
2018-10-15T17:58:23.371Z,9.43
2018-10-15T18:00:52.292Z,8.08
2018-10-15T18:03:21.262Z,7.33
2018-10-15T18:05:50.407Z,8.60
2018-10-15T18:08:19.346Z,9.38
2018-10-15T18:10:48.694Z,7.67
2018-10-15T18:13:17.723Z,8.28
2018-10-15T18:15:46.623Z,7.78
2018-10-15T18:18:15.588Z,9.20
2018-10-15T18:20:45.544Z,7.70
2018-10-15T18:23:14.591Z,7.55
2018-10-15T18:25:43.608Z,8.08
2018-10-15T18:28:12.644Z,9.38
2018-10-15T18:30:41.657Z,8.23
2018-10-15T18:33:10.666Z,8.10
2018-10-15T18:35:39.770Z,8.23
2018-10-15T18:38:08.757Z,9.53
2018-10-15T18:40:37.881Z,10.15
2018-10-15T18:43:07.085Z,9.45
2018-10-15T18:45:36.079Z,10.38
2018-10-15T18:48:05.106Z,10.35
2018-10-15T18:50:34.083Z,10.00
2018-10-15T18:53:02.991Z,11.38
2018-10-15T18:55:31.972Z,11.10
2018-10-15T18:58:01.064Z,8.75
2018-10-15T19:00:29.962Z,9.55
2018-10-15T19:02:58.944Z,8.48
2018-10-15T19:05:27.957Z,7.40
2018-10-15T19:07:56.883Z,9.08
2018-10-15T19:10:26.065Z,9.00
2018-10-15T19:12:55.187Z,8.85
2018-10-15T19:15:24.108Z,7.67
2018-10-15T19:17:53.066Z,9.50
2018-10-15T19:20:22.123Z,9.28
2018-10-15T19:22:51.030Z,9.30
2018-10-15T19:25:20.164Z,9.95
2018-10-15T19:27:49.219Z,8.10
2018-10-15T19:30:18.179Z,7.92
2018-10-15T19:32:47.083Z,11.57
2018-10-15T19:35:16.503Z,8.35
2018-10-15T19:37:45.517Z,7.65
2018-10-15T19:40:14.853Z,9.68
2018-10-15T19:42:43.837Z,8.78
2018-10-15T19:45:12.819Z,8.45
2018-10-15T19:47:41.691Z,9.68
2018-10-15T19:50:10.640Z,8.48
2018-10-15T19:52:39.590Z,8.88
2018-10-15T19:55:08.693Z,8.60
2018-10-15T19:57:37.923Z,9.48
2018-10-15T20:00:10.740Z,8.93
2018-10-15T20:02:39.741Z,9.18
2018-10-15T20:05:09.261Z,9.60
2018-10-15T20:07:38.957Z,9.05
2018-10-15T20:10:10.782Z,8.55
2018-10-15T20:12:40.403Z,8.90
2018-10-15T20:15:10.666Z,8.40
2018-10-15T20:17:40.607Z,9.03
2018-10-15T20:20:10.334Z,7.95
2018-10-15T20:22:40.451Z,8.78
2018-10-15T20:25:10.904Z,8.95
2018-10-15T20:27:40.186Z,10.13
2018-10-15T20:30:11.042Z,9.10
2018-10-15T20:32:40.825Z,8.60
2018-10-15T20:35:12.280Z,9.00
2018-10-15T20:37:42.023Z,9.30
2018-10-15T20:40:11.697Z,9.05
2018-10-15T20:42:41.456Z,8.60
2018-10-15T20:45:10.642Z,10.75
2018-10-15T20:47:40.117Z,10.35
2018-10-15T20:50:09.918Z,10.50
2018-10-15T20:52:39.743Z,9.70
2018-10-15T20:55:10.577Z,9.68
2018-10-15T20:57:39.916Z,9.78
2018-10-15T21:00:10.488Z,9.73
2018-10-15T21:02:41.850Z,10.00
2018-10-15T21:05:10.870Z,11.35
2018-10-15T21:07:39.834Z,9.25
2018-10-15T21:10:08.935Z,11.18
2018-10-15T21:12:38.296Z,10.28
2018-10-15T21:15:08.830Z,10.60
2018-10-15T21:17:37.814Z,9.48
2018-10-15T21:20:07.498Z,10.93
2018-10-15T21:22:36.518Z,10.40
2018-10-15T21:25:05.745Z,9.60
2018-10-15T21:27:35.206Z,11.22
2018-10-15T21:30:05.018Z,10.72
2018-10-15T21:32:33.998Z,11.78
2018-10-15T21:35:03.452Z,9.68
2018-10-15T21:37:32.507Z,9.63
2018-10-15T21:40:01.450Z,9.55
2018-10-15T21:42:30.404Z,11.15
2018-10-15T21:44:59.426Z,11.88
2018-10-15T21:47:28.440Z,12.18
2018-10-15T21:49:57.926Z,10.23
2018-10-15T21:52:27.518Z,8.55
2018-10-15T21:54:56.481Z,8.20
2018-10-15T21:57:25.443Z,8.33
2018-10-15T21:59:54.542Z,7.95
2018-10-15T22:02:23.523Z,8.55
2018-10-15T22:04:52.548Z,9.58
2018-10-15T22:07:21.663Z,8.53
2018-10-15T22:09:50.803Z,7.33
2018-10-15T22:12:20.094Z,8.85
2018-10-15T22:14:49.455Z,8.48
2018-10-15T22:17:18.449Z,8.50
2018-10-15T22:19:47.471Z,8.55
2018-10-15T22:22:16.550Z,7.92
2018-10-15T22:24:45.550Z,8.38
2018-10-15T22:27:14.510Z,9.50
2018-10-15T22:29:43.539Z,8.50
2018-10-15T22:32:12.585Z,8.90
2018-10-15T22:34:41.575Z,8.10
2018-10-15T22:37:11.595Z,8.30
2018-10-15T22:39:40.577Z,9.50
2018-10-15T22:42:10.154Z,9.80
2018-10-15T22:44:39.202Z,8.20
2018-10-15T22:47:08.233Z,9.40
2018-10-15T22:49:37.193Z,9.35
2018-10-15T22:52:06.413Z,7.72
2018-10-15T22:54:35.419Z,8.25
2018-10-15T22:57:04.455Z,8.05
2018-10-15T22:59:33.562Z,9.08
2018-10-15T23:02:02.667Z,8.53
2018-10-15T23:04:31.658Z,8.68
2018-10-15T23:07:00.699Z,10.38
2018-10-15T23:09:29.683Z,10.23
2018-10-15T23:11:58.680Z,8.50
2018-10-15T23:14:27.697Z,8.28
2018-10-15T23:16:56.670Z,8.45
2018-10-15T23:19:26.853Z,9.15
2018-10-15T23:21:55.894Z,8.45
2018-10-15T23:24:24.867Z,8.90
2018-10-15T23:26:54.231Z,8.43
2018-10-15T23:29:23.755Z,9.65
2018-10-15T23:31:52.794Z,9.33
2018-10-15T23:34:21.762Z,8.88
2018-10-15T23:36:51.008Z,9.90
2018-10-15T23:39:19.980Z,8.83
2018-10-15T23:41:48.968Z,8.28
2018-10-15T23:44:17.981Z,10.00
2018-10-15T23:46:46.938Z,9.90
2018-10-15T23:49:15.919Z,8.28
2018-10-15T23:51:44.980Z,10.10
2018-10-15T23:54:14.467Z,9.03
2018-10-15T23:56:43.436Z,8.80
2018-10-15T23:59:13.091Z,10.43
